Time;durP1;ratioP1;P1;durP2;ratioP2;P2;SDS_P1;SDS_P2;PMS_P1;PMS_P2;Temp;Humidity;BMP_temperature;BMP_pressure;BME280_temperature;BME280_humidity;BME280_pressure;Samples;Min_cycle;Max_cycle;Signal;HPM_P1;HPM_P2
2023/08/10 00:00:15;;;;;;;;;;;;;;;16.23;96.10;96845.88;5028651;28;20034;-69
2023/08/10 00:02:42;;;;;;;;;;;;;;;16.22;95.67;96833.66;5046604;28;20157;-69
2023/08/10 00:05:09;;;;;;;;;;;;;;;16.22;96.53;96836.31;5046055;28;19945;-69
2023/08/10 00:07:35;;;;;;;;;;;;;;;16.18;95.57;96834.41;5046138;28;19968;-69
2023/08/10 00:10:02;;;;;;;;;;;;;;;16.14;96.04;96846.50;5046167;28;20249;-69
2023/08/10 00:12:28;;;;;;;;;;;;;;;16.08;96.48;96842.19;5046428;28;19960;-70
2023/08/10 00:14:54;;;;;;;;;;;;;;;16.02;96.46;96838.66;5046130;28;19950;-70
2023/08/10 00:17:20;;;;;;;;;;;;;;;15.97;96.99;96849.97;5045693;28;19960;-70
2023/08/10 00:19:45;;;;;;;;;;;;;;;15.92;97.42;96849.91;5046308;28;19955;-71
2023/08/10 00:22:13;;;;;;;;;;;;;;;15.87;97.33;96857.75;5045935;28;19963;-70
2023/08/10 00:24:39;;;;;;;;;;;;;;;15.83;97.86;96861.94;5045649;28;20149;-70
2023/08/10 00:27:05;;;;;;;;;;;;;;;15.78;97.59;96852.06;5046121;28;19957;-70
2023/08/10 00:29:31;;;;;;;;;;;;;;;15.73;97.96;96849.38;5046152;28;19982;-70
2023/08/10 00:31:57;;;;;;;;;;;;;;;15.70;98.60;96849.00;5046060;28;20246;-69
2023/08/10 00:34:23;;;;;;;;;;;;;;;15.66;98.59;96848.69;5046071;28;19950;-70
2023/08/10 00:36:49;;;;;;;;;;;;;;;15.60;98.69;96858.38;5045928;28;19959;-68
2023/08/10 00:39:17;;;;;;;;;;;;;;;15.55;98.55;96855.63;5045906;28;19979;-68
2023/08/10 00:41:43;;;;;;;;;;;;;;;15.52;98.62;96855.34;5045444;28;20158;-69
2023/08/10 00:44:09;;;;;;;;;;;;;;;15.47;99.46;96858.69;5045815;28;20244;-69
2023/08/10 00:46:35;;;;;;;;;;;;;;;15.42;99.43;96863.88;5045533;28;19956;-69
2023/08/10 00:49:01;;;;;;;;;;;;;;;15.39;99.83;96867.00;5045462;28;19963;-69
2023/08/10 00:51:27;;;;;;;;;;;;;;;15.34;99.90;96869.56;5045731;28;19954;-74
2023/08/10 00:53:53;;;;;;;;;;;;;;;15.29;100.00;96872.13;5045142;28;20269;-73
2023/08/10 00:56:19;;;;;;;;;;;;;;;15.21;99.98;96868.00;5045603;28;19952;-72
2023/08/10 00:58:45;;;;;;;;;;;;;;;15.17;100.00;96874.81;5045556;28;19970;-73
2023/08/10 01:01:11;;;;;;;;;;;;;;;15.11;100.00;96875.75;5045405;28;19977;-73
2023/08/10 01:03:37;;;;;;;;;;;;;;;15.07;100.00;96871.97;5044910;28;19943;-72
2023/08/10 01:06:26;;;;;;;;;;;;;;;15.02;100.00;96875.31;5045406;28;19968;-73
2023/08/10 01:09:03;;;;;;;;;;;;;;;14.99;100.00;96878.41;5044447;28;19967;-70
2023/08/10 01:11:48;;;;;;;;;;;;;;;14.92;100.00;96875.91;5045201;28;19962;-75
2023/08/10 01:14:30;;;;;;;;;;;;;;;14.86;100.00;96873.41;5045368;28;19959;-73
2023/08/10 01:16:57;;;;;;;;;;;;;;;14.82;100.00;96883.63;5027386;28;19967;-73
2023/08/10 01:19:35;;;;;;;;;;;;;;;14.76;100.00;96887.22;5044656;28;19939;-73
2023/08/10 01:22:20;;;;;;;;;;;;;;;14.71;100.00;96887.91;5045074;28;19965;-73
2023/08/10 01:24:58;;;;;;;;;;;;;;;14.67;100.00;96889.41;5044752;28;19987;-74
2023/08/10 01:27:24;;;;;;;;;;;;;;;14.63;100.00;96884.84;5044667;28;19956;-75
2023/08/10 01:29:51;;;;;;;;;;;;;;;14.60;100.00;96888.75;5045041;28;19953;-74
2023/08/10 01:32:17;;;;;;;;;;;;;;;14.55;100.00;96891.25;5044859;28;19955;-76
2023/08/10 01:34:42;;;;;;;;;;;;;;;14.50;100.00;96896.44;5044859;28;19954;-76
2023/08/10 01:37:09;;;;;;;;;;;;;;;14.46;100.00;96897.91;5044873;28;19972;-76
2023/08/10 01:39:35;;;;;;;;;;;;;;;14.42;100.00;96889.66;5026976;28;19957;-76
2023/08/10 01:42:01;;;;;;;;;;;;;;;14.40;100.00;96894.34;5044349;28;21558;-76
2023/08/10 01:44:27;;;;;;;;;;;;;;;14.38;100.00;96894.59;5044970;28;19981;-76
2023/08/10 01:46:55;;;;;;;;;;;;;;;14.36;100.00;96901.94;5044489;28;19980;-72
2023/08/10 01:49:23;;;;;;;;;;;;;;;14.31;100.00;96896.56;5044439;28;20117;-76
2023/08/10 01:51:49;;;;;;;;;;;;;;;14.27;100.00;96891.97;5044700;28;19966;-76
2023/08/10 01:54:15;;;;;;;;;;;;;;;14.24;100.00;96900.31;5044420;28;19975;-76
2023/08/10 01:56:42;;;;;;;;;;;;;;;14.18;100.00;96892.31;5044786;28;19958;-76
2023/08/10 01:59:08;;;;;;;;;;;;;;;14.15;100.00;96898.06;5044670;28;19950;-76
2023/08/10 02:01:33;;;;;;;;;;;;;;;14.11;100.00;96896.91;5044422;28;19963;-76
2023/08/10 02:03:59;;;;;;;;;;;;;;;14.09;100.00;96898.16;5044531;28;20007;-70
2023/08/10 02:06:25;;;;;;;;;;;;;;;14.05;100.00;96902.28;5044615;28;20128;-73
2023/08/10 02:08:51;;;;;;;;;;;;;;;14.00;100.00;96905.59;5044484;28;19969;-74
2023/08/10 02:11:17;;;;;;;;;;;;;;;13.95;100.00;96902.84;5044395;28;19970;-74
2023/08/10 02:13:43;;;;;;;;;;;;;;;13.92;100.00;96900.66;5044700;28;19999;-74
2023/08/10 02:16:09;;;;;;;;;;;;;;;13.87;100.00;96893.44;5044886;28;19966;-74
2023/08/10 02:18:34;;;;;;;;;;;;;;;13.84;100.00;96893.06;5044083;28;19957;-74
2023/08/10 02:21:00;;;;;;;;;;;;;;;13.79;100.00;96896.41;5044523;28;19968;-74
2023/08/10 02:23:29;;;;;;;;;;;;;;;13.75;100.00;96898.72;5044153;28;20136;-74
2023/08/10 02:25:54;;;;;;;;;;;;;;;13.72;100.00;96896.50;5044322;28;19967;-74
2023/08/10 02:28:20;;;;;;;;;;;;;;;13.70;100.00;96889.88;5044988;28;19962;-73
2023/08/10 02:30:46;;;;;;;;;;;;;;;13.67;100.00;96893.75;5044210;28;19966;-74
2023/08/10 02:33:12;;;;;;;;;;;;;;;13.65;100.00;96890.56;5044337;28;19960;-73
2023/08/10 02:35:38;;;;;;;;;;;;;;;13.64;100.00;96888.13;5044261;28;19955;-73
2023/08/10 02:38:03;;;;;;;;;;;;;;;13.59;100.00;96886.97;5044075;28;19962;-73
2023/08/10 02:40:29;;;;;;;;;;;;;;;13.58;100.00;96887.19;5047023;28;19973;-70
2023/08/10 02:42:55;;;;;;;;;;;;;;;13.54;100.00;96881.59;5047630;28;20151;-71
2023/08/10 02:45:22;;;;;;;;;;;;;;;13.53;100.00;96881.81;5048070;28;19955;-70
2023/08/10 02:47:48;;;;;;;;;;;;;;;13.51;100.00;96878.59;5047684;28;20240;-71
2023/08/10 02:50:14;;;;;;;;;;;;;;;13.48;100.00;96879.03;5047657;28;20145;-70
2023/08/10 02:52:40;;;;;;;;;;;;;;;13.45;100.00;96876.84;5047672;28;19964;-70
2023/08/10 02:55:06;;;;;;;;;;;;;;;13.41;100.00;96876.50;5047676;28;19962;-70
2023/08/10 02:57:32;;;;;;;;;;;;;;;13.38;100.00;96882.22;5047670;28;19962;-70
2023/08/10 02:59:58;;;;;;;;;;;;;;;13.38;100.00;96884.88;5047707;28;20270;-76
2023/08/10 03:02:24;;;;;;;;;;;;;;;13.36;100.00;96879.81;5047139;28;19967;-72
2023/08/10 03:04:50;;;;;;;;;;;;;;;13.35;100.00;96883.47;5047751;28;19954;-72
2023/08/10 03:07:17;;;;;;;;;;;;;;;13.34;100.00;96881.06;5047841;28;19959;-72
2023/08/10 03:09:43;;;;;;;;;;;;;;;13.34;100.00;96881.06;5046989;28;19941;-72
2023/08/10 03:12:09;;;;;;;;;;;;;;;13.33;100.00;96884.72;5047805;28;19964;-73
2023/08/10 03:14:36;;;;;;;;;;;;;;;13.34;100.00;96883.69;5047772;28;19957;-73
2023/08/10 03:17:02;;;;;;;;;;;;;;;13.33;100.00;96879.44;5047080;28;19963;-73
2023/08/10 03:19:28;;;;;;;;;;;;;;;13.33;100.00;96877.63;5047136;28;19954;-70
2023/08/10 03:21:54;;;;;;;;;;;;;;;13.33;100.00;96875.00;5047314;28;20266;-74
2023/08/10 03:24:19;;;;;;;;;;;;;;;13.35;100.00;96874.75;5047070;28;19970;-74
2023/08/10 03:26:45;;;;;;;;;;;;;;;13.35;100.00;96885.28;5047141;28;19967;-74
2023/08/10 03:29:11;;;;;;;;;;;;;;;13.32;100.00;96870.75;5047922;28;20136;-74
2023/08/10 03:31:37;;;;;;;;;;;;;;;13.32;100.00;96876.03;5046883;28;20024;-74
2023/08/10 03:34:03;;;;;;;;;;;;;;;13.33;100.00;96882.91;5047130;28;19964;-74
2023/08/10 03:36:28;;;;;;;;;;;;;;;13.33;100.00;96882.91;5047114;28;19959;-75
2023/08/10 03:38:54;;;;;;;;;;;;;;;13.31;100.00;96884.97;5046499;28;19965;-72
2023/08/10 03:41:20;;;;;;;;;;;;;;;13.29;100.00;96875.66;5046957;28;19965;-73
2023/08/10 03:43:46;;;;;;;;;;;;;;;13.30;100.00;96882.53;5046599;28;19954;-72
2023/08/10 03:46:12;;;;;;;;;;;;;;;13.28;100.00;96877.47;5046594;28;19965;-73
2023/08/10 03:48:38;;;;;;;;;;;;;;;13.26;100.00;96874.25;5046608;28;19983;-73
2023/08/10 03:51:03;;;;;;;;;;;;;;;13.25;100.00;96877.91;5046552;28;20027;-73
2023/08/10 03:53:29;;;;;;;;;;;;;;;13.24;100.00;96873.66;5046647;28;19967;-73
2023/08/10 03:55:55;;;;;;;;;;;;;;;13.22;100.00;96875.72;5046826;28;19965;-70
2023/08/10 03:58:21;;;;;;;;;;;;;;;13.22;100.00;96872.28;5046627;28;19979;-72
2023/08/10 04:00:47;;;;;;;;;;;;;;;13.20;100.00;96875.94;5046191;28;19965;-72
2023/08/10 04:03:13;;;;;;;;;;;;;;;13.19;100.00;96874.34;5046489;28;19959;-72
2023/08/10 04:05:39;;;;;;;;;;;;;;;13.19;100.00;96874.34;5046619;28;19958;-72
2023/08/10 04:08:07;;;;;;;;;;;;;;;13.19;100.00;96879.63;5046583;28;19959;-73
2023/08/10 04:10:33;;;;;;;;;;;;;;;13.17;100.00;96879.03;5046549;28;19946;-72
2023/08/10 04:12:59;;;;;;;;;;;;;;;13.15;100.00;96881.09;5046724;28;20252;-73
2023/08/10 04:15:25;;;;;;;;;;;;;;;13.16;100.00;96887.16;5046104;28;19953;-72
2023/08/10 04:17:51;;;;;;;;;;;;;;;13.13;100.00;96884.97;5046405;28;20283;-72
2023/08/10 04:20:17;;;;;;;;;;;;;;;13.13;100.00;96890.25;5046469;28;19961;-72
2023/08/10 04:22:43;;;;;;;;;;;;;;;13.09;100.00;96892.50;5045948;28;20017;-72
2023/08/10 04:25:09;;;;;;;;;;;;;;;13.08;100.00;96893.53;5046359;28;19952;-72
2023/08/10 04:27:35;;;;;;;;;;;;;;;13.07;100.00;96902.47;5046063;28;19956;-73
2023/08/10 04:30:03;;;;;;;;;;;;;;;13.06;100.00;96898.22;5045575;28;20268;-72
2023/08/10 04:32:30;;;;;;;;;;;;;;;13.06;100.00;96902.66;5046161;28;19956;-69
2023/08/10 04:34:55;;;;;;;;;;;;;;;13.05;100.00;96909.78;5046068;28;19958;-72
2023/08/10 04:37:21;;;;;;;;;;;;;;;13.04;100.00;96913.44;5045733;28;19962;-73
2023/08/10 04:39:48;;;;;;;;;;;;;;;13.03;100.00;96909.19;5045507;28;20122;-73
2023/08/10 04:42:14;;;;;;;;;;;;;;;13.01;100.00;96916.50;5045443;28;20156;-73
2023/08/10 04:44:40;;;;;;;;;;;;;;;13.02;100.00;96914.66;5046046;28;19985;-73
2023/08/10 04:47:06;;;;;;;;;;;;;;;13.02;100.00;96907.59;5045449;28;19957;-73
2023/08/10 04:49:32;;;;;;;;;;;;;;;13.05;100.00;96907.13;5045478;28;20011;-73
2023/08/10 04:51:58;;;;;;;;;;;;;;;13.09;100.00;96904.88;5045468;28;20173;-70
2023/08/10 04:54:23;;;;;;;;;;;;;;;13.12;100.00;96899.97;5045694;28;19997;-73
2023/08/10 04:56:49;;;;;;;;;;;;;;;13.17;100.00;96901.94;5027790;28;20189;-73
2023/08/10 04:59:16;;;;;;;;;;;;;;;13.23;100.00;96898.41;5045018;28;19959;-72
2023/08/10 05:01:41;;;;;;;;;;;;;;;13.31;100.00;96902.56;5045027;28;19969;-72
2023/08/10 05:04:09;;;;;;;;;;;;;;;13.39;100.00;96908.31;5045443;28;19960;-73
2023/08/10 05:06:34;;;;;;;;;;;;;;;13.48;100.00;96908.00;5045406;28;19961;-73
2023/08/10 05:09:01;;;;;;;;;;;;;;;13.56;100.00;96912.97;5045144;28;20219;-74
2023/08/10 05:11:27;;;;;;;;;;;;;;;13.65;100.00;96905.53;5044967;28;19963;-72
2023/08/10 05:13:53;;;;;;;;;;;;;;;13.74;100.00;96910.25;5044956;28;19962;-72
2023/08/10 05:16:18;;;;;;;;;;;;;;;13.83;100.00;96908.09;5044968;28;19963;-72
2023/08/10 05:18:44;;;;;;;;;;;;;;;13.91;100.00;96912.25;5045234;28;20247;-73
2023/08/10 05:21:10;;;;;;;;;;;;;;;13.99;100.00;96914.56;5045258;28;19961;-72
2023/08/10 05:23:37;;;;;;;;;;;;;;;14.07;100.00;96913.41;5045181;28;19960;-72
2023/08/10 05:26:04;;;;;;;;;;;;;;;14.15;100.00;96910.41;5044886;28;19965;-73
2023/08/10 05:28:30;;;;;;;;;;;;;;;14.24;100.00;96924.06;5044766;28;19986;-69
2023/08/10 05:30:55;;;;;;;;;;;;;;;14.36;100.00;96923.06;5045126;28;20002;-69
2023/08/10 05:33:21;;;;;;;;;;;;;;;14.47;100.00;96926.72;5045059;28;19957;-69
2023/08/10 05:35:47;;;;;;;;;;;;;;;14.58;100.00;96919.84;5044983;28;20165;-70
2023/08/10 05:38:13;;;;;;;;;;;;;;;14.72;100.00;96926.50;5044289;28;20061;-70
2023/08/10 05:40:39;;;;;;;;;;;;;;;14.88;100.00;96922.31;5044488;28;19961;-70
2023/08/10 05:43:04;;;;;;;;;;;;;;;15.01;100.00;96919.44;5044840;28;19975;-70
2023/08/10 05:45:31;;;;;;;;;;;;;;;15.15;100.00;96925.22;5044823;28;20001;-76
2023/08/10 05:47:56;;;;;;;;;;;;;;;15.39;100.00;96914.56;5044823;28;19964;-69
2023/08/10 05:50:22;;;;;;;;;;;;;;;15.62;100.00;96917.13;5026858;28;19958;-69
2023/08/10 05:52:48;;;;;;;;;;;;;;;15.81;100.00;96911.59;5044809;28;19957;-69
2023/08/10 05:55:14;;;;;;;;;;;;;;;16.02;100.00;96916.22;5044514;28;20017;-69
2023/08/10 05:57:41;;;;;;;;;;;;;;;16.23;100.00;96916.50;5044107;28;19961;-69
2023/08/10 06:00:08;;;;;;;;;;;;;;;16.47;100.00;96916.31;5044555;28;20118;-69
2023/08/10 06:02:33;;;;;;;;;;;;;;;16.74;97.50;96901.31;5044542;28;19965;-69
2023/08/10 06:04:59;;;;;;;;;;;;;;;16.66;97.21;96915.00;5044722;28;19956;-76
2023/08/10 06:07:25;;;;;;;;;;;;;;;16.35;97.87;96917.22;5044575;28;19954;-70
2023/08/10 06:09:51;;;;;;;;;;;;;;;16.09;99.41;96931.13;5044586;28;20802;-70
2023/08/10 06:12:18;;;;;;;;;;;;;;;15.85;100.00;96939.19;5044774;28;19962;-70
2023/08/10 06:14:44;;;;;;;;;;;;;;;15.59;100.00;96951.94;5046586;28;19954;-70
2023/08/10 06:17:11;;;;;;;;;;;;;;;15.32;100.00;96956.19;5048903;28;19966;-70
2023/08/10 06:19:37;;;;;;;;;;;;;;;15.17;100.00;96972.56;5048350;28;19966;-70
2023/08/10 06:22:03;;;;;;;;;;;;;;;15.13;100.00;96972.22;5048507;28;20126;-75
2023/08/10 06:24:30;;;;;;;;;;;;;;;15.10;100.00;96974.50;5048023;28;19956;-69
2023/08/10 06:26:56;;;;;;;;;;;;;;;15.06;100.00;96966.28;5048423;28;19959;-69
2023/08/10 06:29:22;;;;;;;;;;;;;;;15.05;100.00;96958.56;5048443;28;19995;-70
2023/08/10 06:31:48;;;;;;;;;;;;;;;15.06;100.00;96955.69;5048391;28;19958;-70
2023/08/10 06:34:14;;;;;;;;;;;;;;;15.06;100.00;96960.19;5048352;28;19958;-70
2023/08/10 06:36:40;;;;;;;;;;;;;;;15.09;100.00;96965.00;5048266;28;20243;-71
2023/08/10 06:39:06;;;;;;;;;;;;;;;15.08;100.00;96966.84;5047763;28;20007;-71
2023/08/10 06:41:31;;;;;;;;;;;;;;;15.07;100.00;96970.50;5047720;28;19960;-70
2023/08/10 06:43:57;;;;;;;;;;;;;;;15.10;100.00;96977.16;5047615;28;19992;-70
2023/08/10 06:46:23;;;;;;;;;;;;;;;15.13;100.00;96972.22;5048078;28;19969;-69
2023/08/10 06:48:49;;;;;;;;;;;;;;;15.16;100.00;96978.88;5047812;28;19962;-70
2023/08/10 06:51:15;;;;;;;;;;;;;;;15.21;100.00;96971.06;5048184;28;19961;-70
2023/08/10 06:53:41;;;;;;;;;;;;;;;15.28;100.00;96973.56;5048082;28;19956;-70
2023/08/10 06:56:07;;;;;;;;;;;;;;;15.35;100.00;96975.03;5047759;28;19958;-70
2023/08/10 06:58:33;;;;;;;;;;;;;;;15.46;100.00;96980.53;5047769;28;20014;-69
2023/08/10 07:01:00;;;;;;;;;;;;;;;15.54;100.00;96978.28;5048011;28;20349;-75
2023/08/10 07:03:26;;;;;;;;;;;;;;;15.70;100.00;96983.84;5047751;28;19962;-70
2023/08/10 07:05:52;;;;;;;;;;;;;;;15.82;100.00;96979.34;5047779;28;19952;-70
2023/08/10 07:08:18;;;;;;;;;;;;;;;15.87;100.00;96976.78;5048004;28;19958;-69
2023/08/10 07:10:44;;;;;;;;;;;;;;;15.94;100.00;96974.81;5030099;28;19957;-70
2023/08/10 07:13:09;;;;;;;;;;;;;;;16.00;100.00;96980.97;5047074;28;19956;-70
2023/08/10 07:15:35;;;;;;;;;;;;;;;16.03;100.00;96977.84;5047229;28;19995;-70
2023/08/10 07:18:01;;;;;;;;;;;;;;;16.04;100.00;96976.78;5047235;28;19962;-71
2023/08/10 07:20:27;;;;;;;;;;;;;;;16.13;100.00;96985.97;5047217;28;19969;-73
2023/08/10 07:22:54;;;;;;;;;;;;;;;16.25;100.00;96977.94;5047364;28;19971;-73
2023/08/10 07:25:21;;;;;;;;;;;;;;;16.40;100.00;96975.53;5046783;28;19960;-74
2023/08/10 07:27:47;;;;;;;;;;;;;;;16.64;100.00;96980.63;5047218;28;19968;-73
2023/08/10 07:30:13;;;;;;;;;;;;;;;16.83;100.00;96976.69;5047302;28;19958;-74
2023/08/10 07:32:42;;;;;;;;;;;;;;;16.98;100.00;96976.09;5047240;28;19951;-73
2023/08/10 07:35:09;;;;;;;;;;;;;;;17.14;100.00;96978.94;5047208;28;19963;-70
2023/08/10 07:37:36;;;;;;;;;;;;;;;17.23;100.00;96966.84;5046706;28;19964;-70
2023/08/10 07:40:06;;;;;;;;;;;;;;;17.27;100.00;96975.13;5047156;28;19956;-73
2023/08/10 07:42:31;;;;;;;;;;;;;;;17.37;100.00;96968.06;5046447;28;19973;-73
2023/08/10 07:44:57;;;;;;;;;;;;;;;17.60;100.00;96966.19;5047100;28;19959;-73
2023/08/10 07:47:23;;;;;;;;;;;;;;;17.77;100.00;96961.59;5046695;28;20172;-73
2023/08/10 07:49:49;;;;;;;;;;;;;;;18.08;100.00;96969.88;5047061;28;20007;-73
2023/08/10 07:52:15;;;;;;;;;;;;;;;18.31;100.00;96965.25;5046746;28;19963;-73
2023/08/10 07:54:41;;;;;;;;;;;;;;;18.49;100.00;96972.81;5046710;28;20250;-73
2023/08/10 07:57:07;;;;;;;;;;;;;;;18.66;100.00;96967.34;5046667;28;19954;-69
2023/08/10 07:59:33;;;;;;;;;;;;;;;18.75;100.00;96960.50;5046780;28;19959;-69
2023/08/10 08:01:58;;;;;;;;;;;;;;;18.77;98.94;96957.56;5046738;28;19989;-69
2023/08/10 08:04:24;;;;;;;;;;;;;;;18.77;99.10;96970.84;5046094;28;20139;-71
2023/08/10 08:06:50;;;;;;;;;;;;;;;18.70;97.56;96949.03;5046180;28;19936;-69
2023/08/10 08:09:16;;;;;;;;;;;;;;;18.70;99.09;96964.97;5046165;28;19964;-69
2023/08/10 08:11:42;;;;;;;;;;;;;;;18.71;98.57;96967.38;5046178;28;19954;-72
2023/08/10 08:14:08;;;;;;;;;;;;;;;18.79;100.00;96972.25;5046171;28;19969;-73
2023/08/10 08:16:34;;;;;;;;;;;;;;;18.89;100.00;96971.47;5046292;28;19961;-74
2023/08/10 08:19:00;;;;;;;;;;;;;;;18.94;97.13;96946.78;5046152;28;19963;-73
2023/08/10 08:21:27;;;;;;;;;;;;;;;18.93;97.49;96943.34;5028407;28;19964;-74
2023/08/10 08:23:53;;;;;;;;;;;;;;;18.97;99.84;96952.38;5028351;28;19974;-73
2023/08/10 08:26:20;;;;;;;;;;;;;;;19.15;100.00;96953.81;5046090;28;19954;-74
2023/08/10 08:28:46;;;;;;;;;;;;;;;19.41;99.52;96946.69;5046153;28;19963;-73
2023/08/10 08:31:12;;;;;;;;;;;;;;;19.57;96.33;96936.91;5046200;28;19959;-69
2023/08/10 08:33:39;;;;;;;;;;;;;;;19.68;93.87;96922.53;5045573;28;19967;-70
2023/08/10 08:36:05;;;;;;;;;;;;;;;19.75;94.05;96926.84;5045655;28;19945;-70
2023/08/10 08:38:32;;;;;;;;;;;;;;;19.90;94.61;96931.38;5045123;28;20117;-70
2023/08/10 08:41:01;;;;;;;;;;;;;;;20.03;92.00;96905.03;5045622;28;19961;-70
2023/08/10 08:43:27;;;;;;;;;;;;;;;20.18;91.46;96904.22;5045572;28;19962;-70
2023/08/10 08:45:54;;;;;;;;;;;;;;;20.31;92.29;96915.38;5045631;28;20030;-70
2023/08/10 08:48:20;;;;;;;;;;;;;;;20.47;91.62;96909.75;5045576;28;19966;-70
2023/08/10 08:50:46;;;;;;;;;;;;;;;20.67;89.15;96892.16;5045818;28;19956;-73
2023/08/10 08:53:12;;;;;;;;;;;;;;;20.86;86.24;96876.34;5045234;28;19968;-78
2023/08/10 08:55:39;;;;;;;;;;;;;;;21.02;85.62;96874.38;5027811;28;19958;-78
2023/08/10 08:58:05;;;;;;;;;;;;;;;21.12;85.30;96873.56;5045562;28;19963;-78
2023/08/10 09:00:31;;;;;;;;;;;;;;;21.16;83.47;96863.94;5045610;28;20324;-78
2023/08/10 09:03:01;;;;;;;;;;;;;;;21.21;83.49;96864.72;5045474;28;19966;-77
2023/08/10 09:05:28;;;;;;;;;;;;;;;21.34;79.61;96833.94;5045325;28;19957;-77
2023/08/10 09:07:54;;;;;;;;;;;;;;;21.46;74.01;96796.25;5045771;28;20163;-72
2023/08/10 09:10:20;;;;;;;;;;;;;;;21.56;70.66;96780.16;5045039;28;20005;-72
2023/08/10 09:12:47;;;;;;;;;;;;;;;21.69;76.26;96837.44;5044824;28;19983;-72
2023/08/10 09:15:14;;;;;;;;;;;;;;;21.86;69.71;96792.44;5045039;28;19959;-73
2023/08/10 09:17:47;;;;;;;;;;;;;;;22.02;71.38;96816.31;5045060;28;19984;-73
2023/08/10 09:20:31;;;;;;;;;;;;;;;22.14;71.60;96867.50;5045206;28;19961;-73
2023/08/10 09:22:58;;;;;;;;;;;;;;;22.17;60.12;96837.53;5045238;28;19971;-73
2023/08/10 09:25:24;;;;;;;;;;;;;;;22.19;68.18;96878.13;5045150;28;19967;-75
2023/08/10 09:27:52;;;;;;;;;;;;;;;22.22;64.40;96879.44;5044033;28;20992;-77
2023/08/10 09:30:18;;;;;;;;;;;;;;;22.21;69.70;96888.53;5027489;28;19958;-73
2023/08/10 09:32:44;;;;;;;;;;;;;;;22.22;70.58;96898.94;5044726;28;20145;-73
2023/08/10 09:35:15;;;;;;;;;;;;;;;22.29;68.26;96894.09;5045072;28;20029;-72
2023/08/10 09:37:41;;;;;;;;;;;;;;;22.35;64.29;96865.44;5044917;28;19966;-73
2023/08/10 09:40:10;;;;;;;;;;;;;;;22.31;63.97;96877.78;5044704;28;19964;-73
2023/08/10 09:42:37;;;;;;;;;;;;;;;22.44;68.30;96878.97;5044558;28;19964;-72
2023/08/10 09:45:08;;;;;;;;;;;;;;;22.56;64.40;96852.66;5044808;28;19963;-78
2023/08/10 09:47:36;;;;;;;;;;;;;;;22.70;67.51;96871.50;5044661;28;19960;-74
2023/08/10 09:50:03;;;;;;;;;;;;;;;22.86;66.62;96867.53;5044790;28;19956;-75
2023/08/10 09:52:29;;;;;;;;;;;;;;;23.01;64.82;96860.41;5044739;28;19960;-75
2023/08/10 09:54:56;;;;;;;;;;;;;;;23.06;60.63;96849.69;5044305;28;19968;-76
2023/08/10 09:57:23;;;;;;;;;;;;;;;23.16;66.89;96867.44;5044940;28;20129;-75
2023/08/10 09:59:48;;;;;;;;;;;;;;;23.25;65.66;96858.50;5044323;28;20252;-75
2023/08/10 10:02:15;;;;;;;;;;;;;;;23.32;66.53;96866.16;5044027;28;19957;-73
2023/08/10 10:04:42;;;;;;;;;;;;;;;23.35;64.08;96854.06;5044688;28;19953;-73
2023/08/10 10:07:09;;;;;;;;;;;;;;;23.28;68.59;96865.94;5044405;28;20087;-74
2023/08/10 10:09:38;;;;;;;;;;;;;;;23.36;61.44;96844.97;5044409;28;20136;-73
2023/08/10 10:12:08;;;;;;;;;;;;;;;23.41;65.98;96858.25;5026661;28;19964;-74
2023/08/10 10:14:44;;;;;;;;;;;;;;;23.55;64.48;96847.63;5044587;28;19953;-73
2023/08/10 10:17:15;;;;;;;;;;;;;;;23.59;58.45;96832.56;5044540;28;19959;-73
2023/08/10 10:19:41;;;;;;;;;;;;;;;23.57;63.16;96846.25;5044251;28;19953;-74
2023/08/10 10:22:08;;;;;;;;;;;;;;;23.59;62.52;96833.34;5044825;28;19966;-78
2023/08/10 10:24:34;;;;;;;;;;;;;;;23.67;63.23;96847.97;5044702;28;19953;-74
2023/08/10 10:27:04;;;;;;;;;;;;;;;23.77;62.07;96847.03;5044097;28;20145;-75
2023/08/10 10:29:37;;;;;;;;;;;;;;;23.91;63.94;96837.94;5044261;28;19964;-74
2023/08/10 10:32:11;;;;;;;;;;;;;;;24.06;61.29;96828.03;5026733;28;20145;-76
2023/08/10 10:34:37;;;;;;;;;;;;;;;24.18;62.59;96825.69;5045107;28;19960;-74
2023/08/10 10:37:06;;;;;;;;;;;;;;;24.31;62.38;96824.88;5044204;28;19962;-75
2023/08/10 10:39:32;;;;;;;;;;;;;;;24.50;60.89;96813.31;5044340;28;19959;-70
2023/08/10 10:41:58;;;;;;;;;;;;;;;24.57;58.46;96807.53;5044317;28;19959;-73
2023/08/10 10:44:44;;;;;;;;;;;;;;;24.60;57.88;96802.38;5044490;28;20057;-77
2023/08/10 10:47:17;;;;;;;;;;;;;;;24.64;59.67;96816.00;5043722;28;19964;-79
2023/08/10 10:49:55;;;;;;;;;;;;;;;24.69;59.20;96819.38;5043882;28;19962;-78
2023/08/10 10:52:47;;;;;;;;;;;;;;;24.84;58.46;96820.94;5043885;28;19959;-79
2023/08/10 10:55:13;;;;;;;;;;;;;;;24.97;57.13;96807.78;5040301;28;19964;-78
2023/08/10 10:57:39;;;;;;;;;;;;;;;25.07;55.74;96805.69;5044147;28;19966;-73
2023/08/10 11:00:05;;;;;;;;;;;;;;;25.18;57.07;96808.94;5044573;28;19969;-78
2023/08/10 11:02:31;;;;;;;;;;;;;;;25.35;59.34;96805.63;5048031;28;19963;-73
2023/08/10 11:04:57;;;;;;;;;;;;;;;25.55;58.01;96800.84;5047997;28;20144;-73
2023/08/10 11:07:23;;;;;;;;;;;;;;;25.70;56.54;96798.59;5047758;28;19984;-73
2023/08/10 11:09:49;;;;;;;;;;;;;;;25.86;55.29;96784.75;5047400;28;19957;-73
2023/08/10 11:12:16;;;;;;;;;;;;;;;25.98;51.71;96787.69;5047101;28;19975;-74
2023/08/10 11:14:42;;;;;;;;;;;;;;;26.08;54.27;96795.50;5047396;28;19956;-73
2023/08/10 11:17:09;;;;;;;;;;;;;;;26.20;49.75;96789.53;5047466;28;19961;-79
2023/08/10 11:19:34;;;;;;;;;;;;;;;26.30;54.45;96796.53;5047442;28;19964;-74
2023/08/10 11:22:00;;;;;;;;;;;;;;;26.45;54.78;96792.63;5047436;28;19964;-74
2023/08/10 11:24:28;;;;;;;;;;;;;;;26.55;56.37;96795.03;5047365;28;19966;-73
2023/08/10 11:26:54;;;;;;;;;;;;;;;26.70;54.93;96791.91;5047439;28;19991;-74
2023/08/10 11:29:20;;;;;;;;;;;;;;;26.88;56.62;96794.66;5046838;28;20145;-74
2023/08/10 11:31:46;;;;;;;;;;;;;;;26.93;49.01;96776.44;5047255;28;20026;-73
2023/08/10 11:34:23;;;;;;;;;;;;;;;26.94;53.68;96787.97;5047519;28;19966;-74
2023/08/10 11:36:50;;;;;;;;;;;;;;;27.01;48.42;96774.06;5046871;28;19957;-70
2023/08/10 11:39:16;;;;;;;;;;;;;;;27.08;52.87;96779.75;5047295;28;20269;-71
2023/08/10 11:41:42;;;;;;;;;;;;;;;27.20;51.93;96784.53;5047208;28;19967;-71
2023/08/10 11:44:08;;;;;;;;;;;;;;;27.24;53.55;96780.13;5046813;28;19976;-71
2023/08/10 11:46:34;;;;;;;;;;;;;;;27.37;51.02;96784.53;5046896;28;19956;-71
2023/08/10 11:49:00;;;;;;;;;;;;;;;27.50;49.67;96790.84;5047006;28;19958;-71
2023/08/10 11:51:33;;;;;;;;;;;;;;;27.64;51.03;96783.38;5046341;28;19967;-71
2023/08/10 11:54:07;;;;;;;;;;;;;;;27.68;51.32;96791.63;5046839;28;19967;-74
2023/08/10 11:56:33;;;;;;;;;;;;;;;27.58;48.38;96792.75;5047078;28;19961;-79
2023/08/10 11:59:09;;;;;;;;;;;;;;;27.62;50.07;96792.91;5029429;28;19967;-79
2023/08/10 12:01:52;;;;;;;;;;;;;;;27.66;51.10;96791.16;5046421;28;19957;-78
2023/08/10 12:04:18;;;;;;;;;;;;;;;27.70;49.41;96786.72;5046371;28;19969;-79
2023/08/10 12:06:44;;;;;;;;;;;;;;;27.72;49.74;96798.75;5046513;28;19953;-78
2023/08/10 12:09:11;;;;;;;;;;;;;;;27.80;50.62;96799.81;5046498;28;20012;-78
2023/08/10 12:11:37;;;;;;;;;;;;;;;27.98;50.16;96795.22;5045397;28;20146;-79
2023/08/10 12:14:06;;;;;;;;;;;;;;;27.96;47.98;96805.53;5046571;28;19961;-75
2023/08/10 12:16:31;;;;;;;;;;;;;;;27.89;49.59;96795.25;5046412;28;19951;-75
2023/08/10 12:18:57;;;;;;;;;;;;;;;27.72;47.80;96792.56;5045879;28;19943;-75
2023/08/10 12:21:23;;;;;;;;;;;;;;;27.50;48.63;96801.63;5045961;28;19957;-75
2023/08/10 12:23:49;;;;;;;;;;;;;;;27.38;45.86;96791.50;5046428;28;19958;-75
2023/08/10 12:26:15;;;;;;;;;;;;;;;27.41;49.76;96795.47;5046437;28;19958;-75
2023/08/10 12:28:41;;;;;;;;;;;;;;;27.51;47.97;96789.75;5046035;28;19957;-75
2023/08/10 12:31:08;;;;;;;;;;;;;;;27.61;48.00;96797.47;5045928;28;20168;-73
2023/08/10 12:33:34;;;;;;;;;;;;;;;27.68;47.12;96794.31;5046156;28;20140;-71
2023/08/10 12:36:01;;;;;;;;;;;;;;;27.60;43.24;96787.81;5046093;28;19957;-71
2023/08/10 12:38:27;;;;;;;;;;;;;;;27.63;47.31;96797.94;5045864;28;20127;-70